Time;durP1;ratioP1;P1;durP2;ratioP2;P2;SDS_P1;SDS_P2;PMS_P1;PMS_P2;Temp;Humidity;BMP_temperature;BMP_pressure;BME280_temperature;BME280_humidity;BME280_pressure;Samples;Min_cycle;Max_cycle;Signal;HPM_P1;HPM_P2
2023/01/17 00:01:32;;;;;;;8.50;1.75;;;11.80;96.70;;;;;;4977475;28;20078;-75
2023/01/17 00:09:52;;;;;;;11.25;1.83;;;11.70;96.70;;;;;;4982552;28;20056;-74
2023/01/17 00:12:26;;;;;;;11.38;1.70;;;11.70;96.70;;;;;;4989620;28;21147;-74
2023/01/17 00:14:55;;;;;;;7.15;1.02;;;11.70;96.70;;;;;;4969004;28;20101;-74
2023/01/17 00:17:25;;;;;;;7.30;1.23;;;11.60;96.70;;;;;;4984794;28;20395;-75
2023/01/17 01:33:36;;;;;;;4.50;1.17;;;11.60;96.70;;;;;;4983778;28;20121;-74
2023/01/17 01:36:07;;;;;;;9.32;1.38;;;11.70;96.70;;;;;;4984366;28;20050;-74
2023/01/17 01:38:35;;;;;;;7.88;1.60;;;11.70;96.70;;;;;;4974671;28;20046;-74
2023/01/17 01:41:04;;;;;;;6.50;1.20;;;11.70;96.70;;;;;;4969653;28;20039;-74
2023/01/17 01:43:45;;;;;;;9.13;1.08;;;11.70;96.70;;;;;;4965655;28;20043;-74
2023/01/17 01:46:17;;;;;;;10.00;1.65;;;11.70;96.70;;;;;;4973829;28;20051;-74
2023/01/17 01:48:51;;;;;;;12.02;1.70;;;11.70;96.70;;;;;;4975698;28;20054;-75
2023/01/17 01:51:24;;;;;;;10.95;2.40;;;11.70;96.70;;;;;;4984959;28;20149;-74
2023/01/17 01:53:58;;;;;;;11.20;2.00;;;11.70;96.70;;;;;;4976872;28;20039;-75
2023/01/17 01:56:29;;;;;;;8.40;1.80;;;11.70;96.70;;;;;;4974193;28;20053;-74
2023/01/17 01:59:01;;;;;;;11.40;4.35;;;11.70;96.70;;;;;;4983509;28;20046;-74
2023/01/17 02:01:30;;;;;;;12.05;2.38;;;11.70;96.70;;;;;;4979560;28;20050;-74
2023/01/17 02:03:59;;;;;;;8.52;1.60;;;11.70;96.70;;;;;;4972100;28;20038;-74
2023/01/17 02:06:32;;;;;;;14.82;2.22;;;11.70;96.70;;;;;;4976228;28;20125;-75
2023/01/17 02:09:04;;;;;;;7.60;1.77;;;11.80;96.70;;;;;;4973857;28;20728;-75
2023/01/17 02:11:33;;;;;;;10.20;2.22;;;11.80;96.70;;;;;;4967259;28;20055;-75
2023/01/17 02:14:03;;;;;;;9.15;2.03;;;11.80;96.70;;;;;;4976097;28;20042;-74
2023/01/17 02:16:43;;;;;;;10.68;1.92;;;11.80;96.70;;;;;;4967604;28;20141;-74
2023/01/17 02:19:47;;;;;;;9.48;1.70;;;11.80;96.70;;;;;;4963686;28;20058;-74
2023/01/17 02:22:35;;;;;;;10.05;1.30;;;11.90;96.70;;;;;;4975357;28;20066;-75
2023/01/17 02:25:33;;;;;;;6.90;1.35;;;11.80;96.70;;;;;;5000026;28;20062;-75
2023/01/17 02:28:18;;;;;;;9.23;1.52;;;11.80;96.70;;;;;;4965968;28;20509;-75
2023/01/17 02:30:52;;;;;;;8.70;1.20;;;11.80;96.70;;;;;;4971746;28;20131;-75
2023/01/17 02:33:29;;;;;;;9.38;1.55;;;11.80;96.70;;;;;;4973247;28;20065;-75
2023/01/17 02:36:06;;;;;;;10.38;1.27;;;11.80;96.70;;;;;;4977549;28;20671;-75
2023/01/17 02:38:44;;;;;;;8.30;1.30;;;11.80;96.70;;;;;;4968626;28;20058;-75
2023/01/17 02:41:16;;;;;;;10.32;1.50;;;11.80;96.70;;;;;;4979166;28;20129;-76
2023/01/17 02:43:48;;;;;;;5.72;1.02;;;11.80;96.70;;;;;;4967120;28;20097;-75
2023/01/17 02:46:18;;;;;;;8.73;1.20;;;11.90;96.70;;;;;;4965087;28;20060;-76
2023/01/17 02:48:48;;;;;;;5.60;1.00;;;11.90;96.70;;;;;;4973302;28;20406;-75
2023/01/17 02:51:41;;;;;;;12.60;2.35;;;12.00;96.70;;;;;;4968148;28;20121;-77
2023/01/17 02:54:43;;;;;;;5.97;1.38;;;12.00;96.70;;;;;;4973372;28;20053;-75
2023/01/17 02:57:28;;;;;;;10.88;2.10;;;12.00;96.70;;;;;;4981708;28;20046;-76
2023/01/17 03:00:02;;;;;;;8.75;1.70;;;11.90;96.70;;;;;;4983692;28;20050;-76
2023/01/17 03:02:41;;;;;;;7.15;2.25;;;11.90;96.70;;;;;;4977398;28;20051;-75
2023/01/17 03:05:14;;;;;;;14.27;2.80;;;11.90;96.70;;;;;;4984397;28;20044;-75
2023/01/17 03:07:43;;;;;;;12.52;2.55;;;11.90;96.70;;;;;;4966626;28;20120;-75
2023/01/17 03:10:14;;;;;;;8.07;1.83;;;11.80;96.70;;;;;;4963761;28;20045;-76
2023/01/17 03:12:43;;;;;;;9.07;2.00;;;11.80;96.70;;;;;;4953044;28;20054;-76
2023/01/17 03:15:13;;;;;;;9.15;1.90;;;11.80;96.70;;;;;;4965190;28;20051;-76
2023/01/17 03:17:46;;;;;;;6.57;1.30;;;11.80;96.70;;;;;;4970461;28;20042;-75
2023/01/17 03:20:15;;;;;;;7.93;1.20;;;11.80;96.70;;;;;;4971840;28;20054;-75
2023/01/17 03:22:44;;;;;;;8.85;1.63;;;11.80;96.70;;;;;;4974413;28;20056;-78
2023/01/17 03:25:12;;;;;;;11.60;1.70;;;11.70;96.70;;;;;;4975802;28;20057;-75
2023/01/17 03:27:41;;;;;;;8.52;1.98;;;11.70;96.70;;;;;;4968602;28;20051;-75
2023/01/17 03:30:12;;;;;;;9.43;1.80;;;11.70;96.70;;;;;;4969228;28;20051;-75
2023/01/17 03:32:44;;;;;;;8.07;1.20;;;11.70;96.70;;;;;;4966180;28;20093;-74
2023/01/17 03:35:12;;;;;;;6.10;1.17;;;11.70;96.70;;;;;;4971917;28;20669;-74
2023/01/17 03:37:41;;;;;;;8.20;1.20;;;11.70;96.70;;;;;;4963668;28;20047;-74
2023/01/17 03:40:10;;;;;;;8.15;1.27;;;11.70;96.70;;;;;;4964574;28;20043;-74
2023/01/17 03:42:39;;;;;;;11.82;1.85;;;11.70;96.70;;;;;;4968205;28;20046;-76
2023/01/17 03:45:08;;;;;;;5.97;0.90;;;11.70;96.70;;;;;;4967631;28;20441;-76
2023/01/17 03:47:36;;;;;;;8.18;0.93;;;11.70;96.70;;;;;;4962179;28;20038;-75
2023/01/17 03:50:07;;;;;;;8.98;1.55;;;11.70;96.70;;;;;;4963140;28;20042;-76
2023/01/17 03:52:36;;;;;;;8.40;1.17;;;11.80;96.70;;;;;;4978691;28;20093;-75
2023/01/17 03:55:05;;;;;;;9.30;1.40;;;11.80;96.70;;;;;;4979669;28;20692;-75
2023/01/17 03:57:33;;;;;;;8.70;1.30;;;11.80;96.70;;;;;;4967812;28;20042;-76
2023/01/17 04:00:02;;;;;;;5.63;0.80;;;11.80;96.70;;;;;;4966403;28;20055;-75
2023/01/17 04:02:33;;;;;;;5.65;1.13;;;11.80;96.70;;;;;;4964504;28;20061;-75
2023/01/17 04:05:02;;;;;;;6.97;0.88;;;11.80;96.70;;;;;;4963022;28;20054;-75
2023/01/17 04:07:31;;;;;;;5.95;0.90;;;11.80;96.70;;;;;;4976641;28;20038;-75
2023/01/17 04:09:59;;;;;;;4.00;0.70;;;11.90;96.70;;;;;;4981207;28;20140;-76
2023/01/17 04:12:28;;;;;;;4.47;0.82;;;11.90;96.70;;;;;;4992589;28;20042;-75
2023/01/17 04:14:56;;;;;;;8.30;1.08;;;11.80;96.70;;;;;;4970517;28;20050;-75
2023/01/17 04:17:24;;;;;;;5.30;0.82;;;11.80;96.70;;;;;;4963767;28;20046;-75
2023/01/17 04:19:53;;;;;;;9.77;3.47;;;11.80;96.70;;;;;;4971128;28;20061;-75
2023/01/17 04:22:21;;;;;;;9.32;1.20;;;11.70;96.70;;;;;;4978295;28;20061;-75
2023/01/17 04:24:51;;;;;;;10.30;1.23;;;11.70;96.70;;;;;;4975520;28;20051;-77
2023/01/17 04:27:20;;;;;;;8.82;2.05;;;11.60;96.70;;;;;;4979544;28;20866;-76
2023/01/17 04:29:48;;;;;;;5.72;0.95;;;11.50;96.70;;;;;;4980035;28;20074;-75
2023/01/17 04:32:16;;;;;;;6.10;1.17;;;11.40;96.70;;;;;;4970559;28;20161;-75
2023/01/17 04:34:44;;;;;;;6.75;1.05;;;11.20;96.70;;;;;;4978777;28;20101;-76
2023/01/17 04:37:13;;;;;;;4.70;0.60;;;11.10;96.70;;;;;;4974110;28;20060;-76
2023/01/17 04:39:41;;;;;;;4.63;0.50;;;11.00;96.70;;;;;;4980392;28;20081;-75
2023/01/17 04:42:11;;;;;;;5.70;0.88;;;10.90;96.70;;;;;;4982512;28;20054;-75
2023/01/17 04:44:39;;;;;;;5.00;0.80;;;10.80;96.70;;;;;;4979949;28;20078;-76
2023/01/17 04:47:07;;;;;;;7.15;0.88;;;10.80;96.70;;;;;;4972763;28;20105;-77
2023/01/17 04:49:36;;;;;;;5.60;0.85;;;10.80;96.70;;;;;;4975659;28;20070;-76
2023/01/17 04:52:04;;;;;;;4.15;0.88;;;10.70;96.70;;;;;;4955391;28;20667;-76
2023/01/17 04:54:32;;;;;;;3.25;0.50;;;10.60;96.70;;;;;;4976046;28;20038;-74
2023/01/17 04:57:01;;;;;;;4.82;0.57;;;10.60;96.70;;;;;;4968116;28;20420;-75
2023/01/17 04:59:30;;;;;;;5.68;0.60;;;10.50;96.70;;;;;;4965748;28;20057;-74
2023/01/17 05:01:59;;;;;;;4.43;1.02;;;10.50;96.70;;;;;;4967807;28;20043;-74
2023/01/17 05:04:27;;;;;;;3.17;0.80;;;10.50;96.70;;;;;;4966849;28;20137;-74
2023/01/17 05:06:56;;;;;;;4.38;1.08;;;10.40;96.70;;;;;;4966495;28;20334;-75
2023/01/17 05:09:24;;;;;;;5.13;0.80;;;10.30;96.70;;;;;;4966497;28;20047;-75
2023/01/17 05:11:54;;;;;;;3.08;0.80;;;10.30;96.70;;;;;;4973508;28;20066;-75
2023/01/17 05:14:25;;;;;;;3.80;0.32;;;10.30;96.70;;;;;;4970437;28;20042;-75
2023/01/17 05:16:56;;;;;;;2.42;0.50;;;10.30;96.70;;;;;;4957943;28;20050;-75
2023/01/17 05:19:26;;;;;;;3.03;0.32;;;10.20;96.70;;;;;;4982897;28;20062;-81
2023/01/17 05:22:02;;;;;;;6.20;0.57;;;10.20;96.70;;;;;;4974196;28;20101;-76
2023/01/17 05:24:33;;;;;;;2.15;0.63;;;10.10;96.70;;;;;;4969873;28;20059;-75
2023/01/17 05:27:01;;;;;;;3.15;0.40;;;10.10;96.70;;;;;;4972465;28;20038;-75
2023/01/17 05:29:30;;;;;;;4.10;0.60;;;10.10;96.70;;;;;;4981803;28;20053;-75
2023/01/17 05:32:00;;;;;;;5.18;0.60;;;10.10;96.70;;;;;;4965301;28;20073;-74
2023/01/17 05:34:28;;;;;;;3.63;0.52;;;10.10;96.70;;;;;;4970998;28;20101;-74
2023/01/17 05:36:56;;;;;;;5.40;0.57;;;10.10;96.70;;;;;;4969469;28;20051;-75
2023/01/17 05:39:25;;;;;;;3.55;0.60;;;10.00;96.70;;;;;;4982674;28;20682;-75
2023/01/17 05:41:53;;;;;;;3.08;0.63;;;10.10;96.70;;;;;;4985422;28;20038;-74
2023/01/17 05:44:22;;;;;;;2.22;0.60;;;10.10;96.70;;;;;;4982235;28;20058;-75
2023/01/17 05:46:50;;;;;;;3.78;0.68;;;10.10;96.70;;;;;;4966394;28;20547;-74
2023/01/17 05:49:20;;;;;;;2.55;0.38;;;10.20;96.70;;;;;;4966967;28;20061;-74
2023/01/17 05:51:48;;;;;;;2.92;0.45;;;10.20;96.70;;;;;;5000374;28;20045;-74
2023/01/17 05:54:17;;;;;;;3.92;0.40;;;10.20;96.70;;;;;;4983289;28;20046;-74
2023/01/17 05:56:45;;;;;;;3.05;0.50;;;10.30;96.70;;;;;;4974894;28;20050;-74
2023/01/17 05:59:13;;;;;;;3.08;0.95;;;10.30;96.70;;;;;;4974551;28;20080;-75
2023/01/17 06:01:45;;;;;;;9.02;3.38;;;10.30;96.70;;;;;;4964810;28;20057;-75
2023/01/17 06:04:13;;;;;;;5.50;2.47;;;10.30;96.70;;;;;;4968011;28;20798;-74
2023/01/17 06:06:44;;;;;;;5.15;2.03;;;10.40;96.70;;;;;;4977271;28;20121;-75
2023/01/17 06:09:12;;;;;;;4.10;1.67;;;10.40;96.70;;;;;;4948463;28;20058;-75
2023/01/17 06:11:41;;;;;;;3.90;1.90;;;10.40;96.70;;;;;;4958052;28;20249;-75
2023/01/17 06:14:09;;;;;;;4.50;1.90;;;10.40;96.70;;;;;;4972162;28;20129;-75
2023/01/17 06:16:38;;;;;;;5.22;2.13;;;10.50;96.70;;;;;;4964712;28;20071;-74
2023/01/17 06:19:08;;;;;;;4.30;1.90;;;10.50;96.70;;;;;;4973690;28;20050;-75
2023/01/17 06:21:36;;;;;;;4.07;1.73;;;10.50;96.70;;;;;;4973619;28;20421;-74
2023/01/17 06:24:07;;;;;;;4.75;1.38;;;10.50;96.70;;;;;;4998782;28;20042;-75
2023/01/17 06:26:35;;;;;;;4.72;1.50;;;10.50;96.70;;;;;;4979872;28;20055;-75
2023/01/17 06:29:04;;;;;;;4.55;1.65;;;10.50;96.70;;;;;;4964250;28;20125;-75
2023/01/17 06:31:32;;;;;;;4.18;1.67;;;10.50;96.70;;;;;;4969918;28;20073;-75
2023/01/17 06:34:02;;;;;;;5.22;1.73;;;10.50;96.70;;;;;;4983979;28;20030;-75
2023/01/17 06:36:31;;;;;;;3.95;1.42;;;10.50;96.70;;;;;;4989210;28;20050;-76
2023/01/17 06:39:00;;;;;;;3.78;1.30;;;10.50;96.70;;;;;;4963406;28;20527;-75
2023/01/17 06:41:30;;;;;;;4.45;1.40;;;10.50;96.70;;;;;;4972154;28;20051;-75
2023/01/17 06:43:59;;;;;;;6.88;1.92;;;10.50;96.70;;;;;;4965994;28;20125;-75
2023/01/17 06:46:27;;;;;;;6.57;2.22;;;10.60;96.70;;;;;;4969811;28;20125;-75
2023/01/17 06:48:56;;;;;;;4.32;1.63;;;10.50;96.70;;;;;;4968561;28;20047;-75
2023/01/17 06:51:24;;;;;;;5.40;1.58;;;10.60;96.70;;;;;;4964052;28;20042;-76
2023/01/17 06:53:53;;;;;;;5.25;1.75;;;10.50;96.70;;;;;;4969114;28;20050;-76
2023/01/17 06:56:21;;;;;;;6.18;1.45;;;10.40;96.70;;;;;;4973231;28;20046;-77
2023/01/17 06:58:52;;;;;;;3.35;1.50;;;10.40;96.70;;;;;;4974545;28;20038;-77
2023/01/17 07:01:20;;;;;;;5.20;1.20;;;10.40;96.70;;;;;;4949779;28;20038;-76
2023/01/17 07:03:51;;;;;;;4.22;1.55;;;10.30;96.70;;;;;;4964426;28;20050;-76
2023/01/17 07:06:20;;;;;;;6.03;1.58;;;10.20;96.70;;;;;;4964901;28;20046;-77
2023/01/17 07:08:48;;;;;;;4.47;1.20;;;10.20;96.70;;;;;;4968461;28;20125;-82
2023/01/17 07:11:17;;;;;;;3.58;1.30;;;10.20;96.70;;;;;;4980052;28;20060;-77
2023/01/17 07:13:45;;;;;;;7.50;2.22;;;10.20;96.70;;;;;;4981640;28;20066;-77
2023/01/17 07:16:16;;;;;;;7.53;2.30;;;10.20;96.70;;;;;;4978896;28;20432;-77
2023/01/17 07:18:44;;;;;;;6.78;2.47;;;10.20;96.70;;;;;;4971358;28;20417;-77
2023/01/17 07:21:13;;;;;;;6.28;2.30;;;10.20;96.70;;;;;;4963905;28;20070;-77
2023/01/17 07:23:42;;;;;;;5.03;1.85;;;10.20;96.70;;;;;;4974199;28;20042;-77
2023/01/17 07:26:11;;;;;;;6.85;2.55;;;10.20;96.70;;;;;;4964576;28;20093;-78
2023/01/17 07:28:39;;;;;;;4.93;1.52;;;10.30;96.70;;;;;;4981883;28;20078;-77
2023/01/17 07:31:08;;;;;;;4.07;1.50;;;10.30;96.70;;;;;;4979163;28;20050;-77
2023/01/17 07:33:38;;;;;;;5.57;1.38;;;10.30;96.70;;;;;;4970972;28;20046;-78
2023/01/17 07:36:08;;;;;;;2.97;1.50;;;10.40;96.70;;;;;;4977945;28;20046;-78
2023/01/17 07:38:37;;;;;;;6.35;2.65;;;10.40;96.70;;;;;;4956487;28;20053;-80
2023/01/17 07:41:05;;;;;;;4.55;1.00;;;10.40;96.70;;;;;;4982062;28;20046;-78
2023/01/17 07:43:35;;;;;;;2.72;0.77;;;10.40;96.70;;;;;;4971353;28;20082;-78
2023/01/17 07:46:06;;;;;;;5.03;1.27;;;10.40;96.70;;;;;;4997760;28;20046;-78
2023/01/17 07:48:35;;;;;;;3.50;0.70;;;10.40;96.70;;;;;;4984595;28;20059;-78
2023/01/17 07:51:05;;;;;;;3.17;0.90;;;10.40;96.70;;;;;;4966183;28;20153;-77
2023/01/17 07:53:34;;;;;;;4.05;1.25;;;10.40;96.70;;;;;;4981102;28;20070;-78
2023/01/17 07:56:05;;;;;;;3.80;1.20;;;10.30;96.70;;;;;;4981831;28;20186;-77
2023/01/17 07:58:34;;;;;;;3.92;1.10;;;10.30;96.70;;;;;;4981976;28;20054;-78
2023/01/17 08:01:04;;;;;;;3.05;1.15;;;10.30;96.70;;;;;;4972638;28;20054;-79
2023/01/17 08:03:38;;;;;;;2.80;1.25;;;10.30;96.70;;;;;;4981555;28;20050;-78
2023/01/17 08:06:15;;;;;;;3.25;1.40;;;10.30;96.70;;;;;;4980257;28;20597;-77
2023/01/17 08:08:43;;;;;;;;;;;10.30;96.70;;;;;;4983385;28;20046;-77
2023/01/17 08:11:12;;;;;;;5.70;1.23;;;10.30;96.70;;;;;;4974810;28;19925;-77
2023/01/17 08:13:41;;;;;;;4.22;1.48;;;10.30;96.70;;;;;;4973634;28;20039;-79
2023/01/17 08:16:10;;;;;;;2.53;1.33;;;10.30;96.70;;;;;;4963201;28;20074;-76
2023/01/17 08:18:39;;;;;;;3.40;1.17;;;10.30;96.70;;;;;;4981557;28;20042;-78
2023/01/17 08:21:13;;;;;;;5.78;1.35;;;10.30;96.70;;;;;;4978730;28;20315;-77
2023/01/17 08:23:42;;;;;;;4.35;1.83;;;10.30;96.70;;;;;;4970894;28;20046;-77
2023/01/17 08:26:20;;;;;;;3.92;1.25;;;10.30;96.70;;;;;;4962099;28;20478;-76
2023/01/17 08:28:54;;;;;;;4.28;1.50;;;10.30;96.70;;;;;;4971896;28;20101;-78
2023/01/17 08:31:24;;;;;;;2.75;1.13;;;10.30;96.70;;;;;;4978684;28;20066;-78
2023/01/17 08:33:53;;;;;;;3.03;1.10;;;10.30;96.70;;;;;;4964176;28;20053;-78
2023/01/17 08:36:27;;;;;;;4.63;1.48;;;10.30;96.70;;;;;;4970200;28;20146;-75
2023/01/17 08:38:56;;;;;;;5.25;1.40;;;10.30;96.70;;;;;;4986287;28;20504;-75
2023/01/17 08:41:27;;;;;;;4.65;1.67;;;10.30;96.70;;;;;;4977972;28;20065;-76
2023/01/17 08:43:57;;;;;;;3.38;1.10;;;10.30;96.70;;;;;;4982105;28;20048;-76
2023/01/17 08:46:25;;;;;;;3.00;0.88;;;10.40;96.70;;;;;;4986037;28;20034;-75
2023/01/17 08:48:57;;;;;;;4.55;1.38;;;10.40;96.70;;;;;;4969007;28;20051;-75
2023/01/17 08:51:30;;;;;;;4.25;1.52;;;10.40;96.70;;;;;;4967495;28;20046;-75
2023/01/17 08:53:58;;;;;;;3.58;1.15;;;10.30;96.70;;;;;;4969555;28;20046;-75
2023/01/17 08:56:27;;;;;;;3.03;1.10;;;10.30;96.70;;;;;;4986020;28;20132;-78
2023/01/17 08:58:56;;;;;;;3.85;1.00;;;10.20;96.70;;;;;;4988876;28;20137;-76
2023/01/17 09:01:24;;;;;;;5.18;1.65;;;10.30;96.70;;;;;;4952998;28;20047;-76
2023/01/17 09:03:53;;;;;;;5.13;1.75;;;10.30;96.70;;;;;;4967521;28;20043;-75
2023/01/17 09:06:21;;;;;;;3.33;1.35;;;10.30;96.70;;;;;;4958350;28;20057;-75
2023/01/17 09:08:53;;;;;;;4.18;2.63;;;10.30;96.70;;;;;;4973546;28;20047;-75
2023/01/17 09:11:22;;;;;;;5.47;3.72;;;10.20;96.70;;;;;;4975997;28;20701;-75
2023/01/17 09:13:50;;;;;;;4.82;1.90;;;10.30;96.70;;;;;;4966858;28;20579;-75
2023/01/17 09:16:19;;;;;;;4.25;1.92;;;10.30;96.70;;;;;;4967171;28;20046;-75
2023/01/17 09:18:48;;;;;;;10.57;5.35;;;10.30;96.70;;;;;;4982776;28;20721;-75
2023/01/17 09:21:17;;;;;;;4.55;1.48;;;10.30;96.70;;;;;;4976463;28;20065;-76
2023/01/17 09:23:46;;;;;;;4.82;2.63;;;10.30;96.70;;;;;;4979280;28;20101;-76
2023/01/17 09:26:18;;;;;;;4.25;1.35;;;10.30;96.70;;;;;;4973337;28;20072;-76
2023/01/17 09:28:47;;;;;;;4.28;2.17;;;10.30;96.70;;;;;;4984006;28;20049;-75
2023/01/17 09:31:17;;;;;;;4.68;1.48;;;10.40;96.70;;;;;;4982947;28;20075;-75
2023/01/17 09:33:45;;;;;;;3.03;1.33;;;10.40;96.70;;;;;;4983950;28;20089;-76
2023/01/17 09:36:14;;;;;;;2.35;0.90;;;10.30;96.70;;;;;;4983406;28;20552;-75
2023/01/17 09:38:43;;;;;;;2.40;0.85;;;10.30;96.70;;;;;;4984266;28;20042;-75
2023/01/17 09:41:26;;;;;;;3.00;1.20;;;10.30;96.70;;;;;;4988185;28;20042;-75
2023/01/17 09:44:00;;;;;;;5.32;1.33;;;10.30;96.70;;;;;;4971892;28;20128;-76
2023/01/17 09:46:36;;;;;;;3.38;1.17;;;10.30;96.70;;;;;;4967758;28;20051;-76
2023/01/17 09:49:07;;;;;;;3.33;0.80;;;10.40;96.70;;;;;;4965247;28;20061;-77
2023/01/17 09:51:36;;;;;;;2.30;1.27;;;10.40;96.70;;;;;;4976231;28;20451;-77
2023/01/17 09:54:08;;;;;;;3.20;1.35;;;10.40;96.70;;;;;;4985348;28;20042;-75
2023/01/17 09:56:46;;;;;;;3.42;1.45;;;10.40;96.70;;;;;;4973778;28;20075;-76
2023/01/17 09:59:23;;;;;;;3.03;1.58;;;10.40;96.70;;;;;;4982413;28;20061;-75
2023/01/17 10:02:06;;;;;;;;;;;10.40;96.70;;;;;;4973171;28;20046;-77
2023/01/17 10:04:54;;;;;;;5.93;2.25;;;10.30;96.70;;;;;;4965435;28;19930;-75
2023/01/17 10:07:35;;;;;;;4.85;2.03;;;10.30;96.70;;;;;;4970966;28;20069;-76
2023/01/17 10:10:17;;;;;;;3.25;1.67;;;10.30;96.70;;;;;;4964761;28;20054;-75
2023/01/17 10:12:54;;;;;;;4.40;2.05;;;10.40;96.70;;;;;;4980364;28;20042;-75
2023/01/17 10:15:43;;;;;;;5.00;2.08;;;10.50;96.70;;;;;;4980442;28;20050;-76
2023/01/17 10:18:38;;;;;;;5.13;2.58;;;10.60;96.70;;;;;;4969741;28;20054;-76
2023/01/17 10:21:13;;;;;;;5.25;2.00;;;10.60;96.70;;;;;;4971261;28;20077;-75
2023/01/17 10:24:02;;;;;;;5.88;1.85;;;10.70;96.70;;;;;;4984583;28;20054;-76
2023/01/17 10:26:33;;;;;;;3.92;1.73;;;10.80;96.70;;;;;;4975810;28;20058;-75
2023/01/17 10:29:09;;;;;;;4.53;1.80;;;10.80;96.70;;;;;;4966393;28;20287;-78
2023/01/17 10:31:43;;;;;;;4.40;1.83;;;10.90;96.70;;;;;;4970019;28;20043;-76
2023/01/17 10:34:17;;;;;;;6.15;1.83;;;10.90;96.70;;;;;;4984374;28;20075;-76
2023/01/17 10:36:51;;;;;;;4.20;1.33;;;10.90;96.70;;;;;;4975151;28;20047;-75
2023/01/17 10:39:22;;;;;;;3.72;1.30;;;10.80;96.70;;;;;;4970952;28;20065;-75
2023/01/17 10:41:57;;;;;;;1.67;0.82;;;10.80;96.70;;;;;;4966776;28;20378;-76
2023/01/17 10:44:34;;;;;;;3.53;0.80;;;10.80;96.70;;;;;;4998901;28;20061;-75
2023/01/17 10:47:11;;;;;;;1.80;0.80;;;10.90;96.70;;;;;;4974480;28;20074;-75
2023/01/17 10:49:45;;;;;;;1.75;1.00;;;11.00;96.70;;;;;;4967869;28;20563;-76
2023/01/17 10:52:21;;;;;;;2.22;1.02;;;11.00;96.70;;;;;;4981587;28;20081;-76
2023/01/17 10:55:02;;;;;;;2.30;1.40;;;11.00;96.70;;;;;;4974245;28;20043;-76
2023/01/17 10:57:37;;;;;;;3.20;2.13;;;11.00;96.70;;;;;;4981847;28;20061;-76
2023/01/17 11:00:32;;;;;;;3.95;2.10;;;10.80;96.70;;;;;;4982103;28;20060;-75
2023/01/17 11:03:01;;;;;;;3.25;1.88;;;10.70;96.70;;;;;;4967734;28;20062;-76
2023/01/17 11:05:31;;;;;;;4.13;1.80;;;10.80;96.70;;;;;;4979792;28;20104;-76
2023/01/17 11:08:01;;;;;;;5.35;1.50;;;10.80;96.70;;;;;;4965483;28;20047;-75
2023/01/17 11:10:36;;;;;;;4.57;3.38;;;10.80;96.70;;;;;;4963735;28;20070;-75
2023/01/17 11:13:18;;;;;;;3.25;2.58;;;10.80;96.70;;;;;;4965369;28;20512;-75
2023/01/17 11:15:51;;;;;;;3.42;1.98;;;10.90;96.70;;;;;;4967486;28;20046;-76
2023/01/17 11:18:21;;;;;;;5.97;3.13;;;10.90;96.70;;;;;;4966684;28;20050;-75
2023/01/17 11:20:50;;;;;;;5.20;2.67;;;10.80;96.70;;;;;;4972566;28;20061;-76
2023/01/17 11:23:21;;;;;;;3.85;1.98;;;10.80;96.70;;;;;;4964250;28;20135;-75
2023/01/17 11:25:52;;;;;;;3.45;1.80;;;10.80;96.70;;;;;;4972327;28;20101;-76
2023/01/17 11:28:24;;;;;;;3.25;1.50;;;10.80;96.70;;;;;;4969127;28;20070;-76
2023/01/17 11:30:56;;;;;;;5.32;2.03;;;10.80;96.70;;;;;;4996060;28;20077;-75
2023/01/17 11:33:55;;;;;;;6.38;3.17;;;10.90;96.70;;;;;;4979792;28;20050;-76
2023/01/17 11:36:29;;;;;;;3.05;2.40;;;10.90;96.70;;;;;;4983459;28;20500;-76
2023/01/17 11:39:01;;;;;;;4.78;2.28;;;10.90;96.70;;;;;;4980558;28;20433;-76
2023/01/17 11:41:34;;;;;;;2.80;2.08;;;10.90;96.70;;;;;;4972360;28;20059;-76
2023/01/17 11:44:19;;;;;;;3.85;2.00;;;10.90;96.70;;;;;;4979064;28;20046;-76
2023/01/17 11:47:08;;;;;;;4.35;2.50;;;10.90;96.70;;;;;;4964774;28;20042;-77
2023/01/17 11:49:37;;;;;;;3.22;1.70;;;10.90;96.70;;;;;;4967045;28;20077;-76
2023/01/17 11:52:08;;;;;;;4.68;2.00;;;10.90;96.70;;;;;;4969018;28;20145;-76
2023/01/17 11:54:39;;;;;;;2.35;1.50;;;10.90;96.70;;;;;;4969789;28;20392;-76
2023/01/17 11:57:20;;;;;;;3.22;1.60;;;10.90;96.70;;;;;;4963641;28;20171;-78
2023/01/17 11:59:51;;;;;;;3.53;1.50;;;10.90;96.70;;;;;;4970755;28;20166;-77
2023/01/17 12:02:41;;;;;;;3.28;2.00;;;10.90;96.70;;;;;;4976943;28;20056;-76
2023/01/17 12:05:24;;;;;;;2.25;1.60;;;10.90;96.70;;;;;;4981720;28;20042;-77
2023/01/17 12:08:02;;;;;;;5.07;2.10;;;11.00;96.70;;;;;;4966009;28;20043;-76
2023/01/17 12:10:38;;;;;;;3.53;2.00;;;11.10;96.70;;;;;;4966894;28;20040;-76
2023/01/17 12:16:32;;;;;;;2.60;1.42;;;11.10;96.70;;;;;;4970599;28;20057;-77
2023/01/17 12:19:33;;;;;;;3.55;1.90;;;11.10;96.70;;;;;;4970241;28;21184;-76
2023/01/17 12:22:17;;;;;;;2.75;1.75;;;11.10;96.70;;;;;;4975472;28;20516;-74
2023/01/17 12:25:19;;;;;;;4.20;1.40;;;11.10;96.70;;;;;;4975844;28;21165;-75
2023/01/17 12:27:57;;;;;;;3.35;1.85;;;11.10;96.70;;;;;;4959540;28;20062;-75
2023/01/17 12:30:39;;;;;;;2.47;1.50;;;11.10;96.70;;;;;;4978383;28;20311;-76
2023/01/17 12:33:18;;;;;;;1.90;1.40;;;11.00;96.70;;;;;;4980670;28;20073;-74
2023/01/17 12:35:55;;;;;;;3.65;2.05;;;11.00;96.70;;;;;;4979735;28;20050;-75
2023/01/17 12:38:31;;;;;;;1.73;1.10;;;10.90;96.70;;;;;;4970493;28;20050;-75
2023/01/17 12:41:05;;;;;;;1.30;1.10;;;10.90;96.70;;;;;;4952486;28;20512;-75
2023/01/17 12:43:39;;;;;;;1.42;1.10;;;10.90;96.70;;;;;;4980252;28;20081;-76
2023/01/17 12:46:19;;;;;;;1.67;1.40;;;11.00;96.70;;;;;;4970858;28;20050;-76
2023/01/17 12:48:51;;;;;;;1.98;1.13;;;11.10;96.70;;;;;;4961318;28;20047;-75
2023/01/17 12:51:28;;;;;;;1.95;1.60;;;11.20;96.70;;;;;;4963201;28;20074;-76
2023/01/17 12:54:03;;;;;;;4.43;1.75;;;11.10;96.70;;;;;;4961111;28;20054;-75
2023/01/17 12:56:35;;;;;;;2.25;2.00;;;11.10;96.70;;;;;;4965986;28;20055;-75
2023/01/17 12:59:14;;;;;;;2.38;1.88;;;11.20;96.70;;;;;;4976352;28;20039;-74
2023/01/17 13:01:56;;;;;;;2.42;1.40;;;11.20;96.70;;;;;;4979556;28;20530;-74
2023/01/17 13:04:28;;;;;;;4.05;1.77;;;11.30;96.70;;;;;;4964527;28;20080;-74
2023/01/17 13:07:08;;;;;;;2.58;1.80;;;11.30;96.70;;;;;;4981611;28;20157;-74
2023/01/17 13:09:42;;;;;;;2.00;1.38;;;11.40;96.70;;;;;;4972444;28;20502;-74
2023/01/17 13:12:14;;;;;;;2.17;1.80;;;11.50;96.70;;;;;;4973156;28;20496;-75
2023/01/17 13:14:45;;;;;;;2.42;1.33;;;11.50;96.70;;;;;;4962019;28;20051;-75
2023/01/17 13:17:30;;;;;;;5.07;3.60;;;11.50;96.70;;;;;;4963963;28;20070;-74
2023/01/17 13:20:05;;;;;;;6.50;5.05;;;11.40;96.70;;;;;;4964817;28;20125;-74
2023/01/17 13:22:37;;;;;;;3.63;2.38;;;11.40;96.70;;;;;;4989695;28;20058;-74
2023/01/17 13:25:24;;;;;;;3.15;2.40;;;11.30;96.70;;;;;;4966868;28;20051;-74
2023/01/17 13:28:11;;;;;;;2.97;2.05;;;11.30;96.70;;;;;;4974512;28;20046;-74
2023/01/17 13:31:31;;;;;;;2.28;1.83;;;11.40;96.70;;;;;;4970894;28;20078;-74
2023/01/17 13:34:26;;;;;;;4.00;2.67;;;11.40;96.70;;;;;;4931213;28;20062;-75
2023/01/17 13:37:08;;;;;;;10.43;7.55;;;11.50;96.70;;;;;;4982040;28;20046;-73
2023/01/17 13:40:04;;;;;;;8.00;6.28;;;11.50;96.70;;;;;;4978891;28;21190;-75
2023/01/17 13:42:41;;;;;;;7.85;5.47;;;11.40;96.70;;;;;;4966600;28;20055;-75
2023/01/17 13:45:18;;;;;;;7.00;5.20;;;11.40;96.70;;;;;;4969348;28;20057;-74
2023/01/17 13:47:46;;;;;;;5.60;5.00;;;11.60;96.70;;;;;;4965043;28;20055;-74
2023/01/17 13:50:47;;;;;;;4.28;3.35;;;11.70;96.70;;;;;;4965115;28;20065;-75
2023/01/17 13:53:54;;;;;;;4.22;3.22;;;11.80;96.70;;;;;;4917360;28;20051;-75
2023/01/17 13:56:35;;;;;;;4.70;2.40;;;11.80;96.70;;;;;;4966168;28;20519;-75
2023/01/17 13:59:28;;;;;;;5.18;3.10;;;11.70;96.70;;;;;;4965129;28;20088;-75
2023/01/17 14:01:57;;;;;;;4.90;3.13;;;11.70;96.70;;;;;;4973976;28;20055;-75
2023/01/17 14:05:06;;;;;;;5.38;3.72;;;11.70;96.70;;;;;;4966036;28;20053;-75
2023/01/17 14:07:46;;;;;;;5.07;2.80;;;11.70;96.70;;;;;;4978151;28;20058;-75
2023/01/17 14:10:36;;;;;;;5.03;2.72;;;11.70;96.70;;;;;;4981805;28;20488;-75
2023/01/17 14:13:31;;;;;;;5.45;2.45;;;11.70;96.70;;;;;;4965262;28;20169;-75
2023/01/17 14:16:02;;;;;;;5.15;2.58;;;11.80;96.70;;;;;;4967263;28;20078;-74
2023/01/17 14:18:33;;;;;;;4.75;2.78;;;11.80;96.70;;;;;;4968253;28;20054;-75
2023/01/17 14:21:10;;;;;;;5.55;2.90;;;11.80;96.70;;;;;;4966072;28;20101;-75
2023/01/17 14:23:58;;;;;;;3.88;2.83;;;11.80;96.70;;;;;;4968372;28;20050;-76
2023/01/17 14:26:44;;;;;;;6.68;4.78;;;11.80;96.70;;;;;;4968081;28;20137;-75
2023/01/17 14:29:53;;;;;;;6.65;3.67;;;11.80;96.70;;;;;;4976746;28;20521;-75
2023/01/17 14:32:24;;;;;;;5.25;2.30;;;11.80;96.70;;;;;;4969270;28;20078;-74
2023/01/17 14:34:54;;;;;;;4.13;2.10;;;11.70;96.70;;;;;;4968596;28;20046;-74
2023/01/17 14:37:42;;;;;;;3.33;2.25;;;11.60;96.70;;;;;;4967823;28;20042;-74
2023/01/17 14:40:19;;;;;;;3.90;2.33;;;11.70;96.70;;;;;;4983028;28;20065;-75
2023/01/17 14:42:51;;;;;;;5.25;2.47;;;11.70;96.70;;;;;;4982575;28;20054;-75